sensor_id;sensor_type;location;lat;lon;timestamp;pressure;altitude;pressure_sealevel;temperature;humidity
41334;BME280;27078;46.428;6.256;2023-03-21T00:00:45;96729.16;;;5.30;100.00
41334;BME280;27078;46.428;6.256;2023-03-21T00:03:13;96728.22;;;5.32;100.00
41334;BME280;27078;46.428;6.256;2023-03-21T00:05:43;96729.25;;;5.29;100.00
41334;BME280;27078;46.428;6.256;2023-03-21T00:08:14;96726.00;;;5.25;100.00
41334;BME280;27078;46.428;6.256;2023-03-21T00:10:39;96718.59;;;5.32;100.00
41334;BME280;27078;46.428;6.256;2023-03-21T00:13:05;96719.25;;;5.36;100.00
41334;BME280;27078;46.428;6.256;2023-03-21T00:15:30;96716.50;;;5.37;100.00
41334;BME280;27078;46.428;6.256;2023-03-21T00:17:56;96722.78;;;5.35;100.00
41334;BME280;27078;46.428;6.256;2023-03-21T00:20:32;96717.38;;;5.38;100.00
41334;BME280;27078;46.428;6.256;2023-03-21T00:23:02;96727.94;;;5.36;100.00
41334;BME280;27078;46.428;6.256;2023-03-21T00:25:28;96726.06;;;5.38;100.00
41334;BME280;27078;46.428;6.256;2023-03-21T00:27:53;96717.84;;;5.30;100.00
41334;BME280;27078;46.428;6.256;2023-03-21T00:30:19;96720.53;;;5.28;100.00
41334;BME280;27078;46.428;6.256;2023-03-21T00:32:47;96707.53;;;5.27;100.00
41334;BME280;27078;46.428;6.256;2023-03-21T00:35:13;96708.88;;;5.20;100.00
41334;BME280;27078;46.428;6.256;2023-03-21T00:37:38;96706.72;;;5.12;100.00
41334;BME280;27078;46.428;6.256;2023-03-21T00:40:04;96707.38;;;5.16;100.00
41334;BME280;27078;46.428;6.256;2023-03-21T00:42:34;96711.13;;;5.12;100.00
41334;BME280;27078;46.428;6.256;2023-03-21T00:45:00;96700.41;;;5.02;100.00
41334;BME280;27078;46.428;6.256;2023-03-21T00:47:26;96695.25;;;5.00;100.00
41334;BME280;27078;46.428;6.256;2023-03-21T00:49:51;96705.38;;;4.92;100.00
41334;BME280;27078;46.428;6.256;2023-03-21T00:52:16;96701.09;;;4.91;100.00
41334;BME280;27078;46.428;6.256;2023-03-21T00:54:42;96697.91;;;4.86;100.00
41334;BME280;27078;46.428;6.256;2023-03-21T00:57:07;96695.47;;;4.83;100.00
41334;BME280;27078;46.428;6.256;2023-03-21T00:59:32;96708.94;;;4.77;100.00
41334;BME280;27078;46.428;6.256;2023-03-21T01:01:58;96699.84;;;4.82;100.00
41334;BME280;27078;46.428;6.256;2023-03-21T01:04:26;96703.97;;;4.86;100.00
41334;BME280;27078;46.428;6.256;2023-03-21T01:06:53;96696.97;;;4.87;100.00
41334;BME280;27078;46.428;6.256;2023-03-21T01:09:21;96695.94;;;4.89;100.00
41334;BME280;27078;46.428;6.256;2023-03-21T01:11:47;96700.50;;;4.86;100.00
41334;BME280;27078;46.428;6.256;2023-03-21T01:14:15;96701.47;;;4.85;100.00
41334;BME280;27078;46.428;6.256;2023-03-21T01:16:41;96696.97;;;4.87;100.00
41334;BME280;27078;46.428;6.256;2023-03-21T01:19:07;96704.47;;;4.79;100.00
41334;BME280;27078;46.428;6.256;2023-03-21T01:21:33;96707.25;;;4.76;100.00
41334;BME280;27078;46.428;6.256;2023-03-21T01:24:00;96705.56;;;4.75;100.00
41334;BME280;27078;46.428;6.256;2023-03-21T01:26:26;96700.50;;;4.72;100.00
41334;BME280;27078;46.428;6.256;2023-03-21T01:28:52;96699.75;;;4.69;100.00
41334;BME280;27078;46.428;6.256;2023-03-21T01:31:18;96697.16;;;4.69;100.00
41334;BME280;27078;46.428;6.256;2023-03-21T01:33:43;96692.66;;;4.72;100.00
41334;BME280;27078;46.428;6.256;2023-03-21T01:36:15;96696.69;;;4.63;100.00
41334;BME280;27078;46.428;6.256;2023-03-21T01:38:41;96694.44;;;4.57;100.00
41334;BME280;27078;46.428;6.256;2023-03-21T01:41:14;96697.34;;;4.52;100.00
41334;BME280;27078;46.428;6.256;2023-03-21T01:43:42;96702.56;;;4.52;100.00
41334;BME280;27078;46.428;6.256;2023-03-21T01:46:27;96693.91;;;4.52;100.00
41334;BME280;27078;46.428;6.256;2023-03-21T01:48:57;96691.53;;;4.61;100.00
41334;BME280;27078;46.428;6.256;2023-03-21T01:51:25;96697.16;;;4.55;100.00
41334;BME280;27078;46.428;6.256;2023-03-21T01:53:52;96698.94;;;4.55;100.00
41334;BME280;27078;46.428;6.256;2023-03-21T01:58:48;96693.16;;;4.49;100.00
41334;BME280;27078;46.428;6.256;2023-03-21T02:01:15;96692.41;;;4.47;100.00
41334;BME280;27078;46.428;6.256;2023-03-21T02:03:43;96695.00;;;4.47;100.00
41334;BME280;27078;46.428;6.256;2023-03-21T02:06:31;96690.91;;;4.43;100.00
41334;BME280;27078;46.428;6.256;2023-03-21T02:09:03;96683.50;;;4.36;100.00
41334;BME280;27078;46.428;6.256;2023-03-21T02:11:29;96679.78;;;4.25;100.00
41334;BME280;27078;46.428;6.256;2023-03-21T02:13:56;96690.75;;;4.16;100.00
41334;BME280;27078;46.428;6.256;2023-03-21T02:18:58;96684.66;;;4.01;100.00
41334;BME280;27078;46.428;6.256;2023-03-21T02:21:53;96673.53;;;3.98;100.00
41334;BME280;27078;46.428;6.256;2023-03-21T02:27:12;96683.75;;;4.02;100.00
41334;BME280;27078;46.428;6.256;2023-03-21T02:30:05;96678.41;;;4.04;100.00
41334;BME280;27078;46.428;6.256;2023-03-21T02:38:26;96679.00;;;4.09;100.00
41334;BME280;27078;46.428;6.256;2023-03-21T02:41:05;96675.16;;;4.00;100.00
41334;BME280;27078;46.428;6.256;2023-03-21T02:43:41;96669.13;;;4.28;100.00
41334;BME280;27078;46.428;6.256;2023-03-21T02:46:21;96670.78;;;4.29;100.00
41334;BME280;27078;46.428;6.256;2023-03-21T02:49:02;96672.13;;;4.37;100.00
41334;BME280;27078;46.428;6.256;2023-03-21T02:51:33;96676.78;;;4.46;100.00
41334;BME280;27078;46.428;6.256;2023-03-21T02:54:03;96675.94;;;4.31;100.00
41334;BME280;27078;46.428;6.256;2023-03-21T02:56:31;96674.72;;;4.22;100.00
41334;BME280;27078;46.428;6.256;2023-03-21T02:58:59;96680.50;;;4.13;100.00
41334;BME280;27078;46.428;6.256;2023-03-21T03:01:24;96678.34;;;4.05;100.00
41334;BME280;27078;46.428;6.256;2023-03-21T03:03:50;96669.69;;;3.89;100.00
41334;BME280;27078;46.428;6.256;2023-03-21T03:06:24;96676.53;;;3.92;100.00
41334;BME280;27078;46.428;6.256;2023-03-21T03:11:37;96672.44;;;3.87;100.00
41334;BME280;27078;46.428;6.256;2023-03-21T03:19:30;96654.09;;;3.73;100.00
41334;BME280;27078;46.428;6.256;2023-03-21T03:22:02;96657.38;;;3.77;100.00
41334;BME280;27078;46.428;6.256;2023-03-21T03:24:35;96663.44;;;3.77;100.00
41334;BME280;27078;46.428;6.256;2023-03-21T03:27:09;96659.34;;;3.87;100.00
41334;BME280;27078;46.428;6.256;2023-03-21T03:29:39;96666.66;;;3.97;100.00
41334;BME280;27078;46.428;6.256;2023-03-21T03:34:43;96667.19;;;4.02;100.00
41334;BME280;27078;46.428;6.256;2023-03-21T03:37:16;96663.47;;;4.06;100.00
41334;BME280;27078;46.428;6.256;2023-03-21T03:39:55;96667.50;;;4.12;100.00
41334;BME280;27078;46.428;6.256;2023-03-21T03:42:27;96662.28;;;4.12;100.00
41334;BME280;27078;46.428;6.256;2023-03-21T03:44:53;96659.78;;;4.39;100.00
41334;BME280;27078;46.428;6.256;2023-03-21T03:52:53;96673.97;;;4.35;100.00
41334;BME280;27078;46.428;6.256;2023-03-21T03:55:21;96658.66;;;4.28;100.00
41334;BME280;27078;46.428;6.256;2023-03-21T03:57:47;96670.78;;;4.29;100.00
41334;BME280;27078;46.428;6.256;2023-03-21T04:00:14;96674.34;;;4.28;100.00
41334;BME280;27078;46.428;6.256;2023-03-21T04:02:41;96672.28;;;4.34;100.00
41334;BME280;27078;46.428;6.256;2023-03-21T04:05:07;96670.34;;;4.37;100.00
41334;BME280;27078;46.428;6.256;2023-03-21T04:07:33;96668.91;;;4.32;100.00
41334;BME280;27078;46.428;6.256;2023-03-21T04:09:58;96667.41;;;4.27;100.00
41334;BME280;27078;46.428;6.256;2023-03-21T04:12:24;96661.19;;;4.30;100.00
41334;BME280;27078;46.428;6.256;2023-03-21T04:14:50;96655.38;;;4.25;100.00
41334;BME280;27078;46.428;6.256;2023-03-21T04:17:16;96664.72;;;4.29;100.00
41334;BME280;27078;46.428;6.256;2023-03-21T04:19:43;96665.09;;;4.23;100.00
41334;BME280;27078;46.428;6.256;2023-03-21T04:22:09;96669.94;;;4.29;100.00
41334;BME280;27078;46.428;6.256;2023-03-21T04:24:35;96668.28;;;4.28;100.00
41334;BME280;27078;46.428;6.256;2023-03-21T04:27:02;96663.34;;;4.23;100.00
41334;BME280;27078;46.428;6.256;2023-03-21T04:29:27;96661.09;;;4.17;100.00
41334;BME280;27078;46.428;6.256;2023-03-21T04:31:54;96662.41;;;4.24;100.00
41334;BME280;27078;46.428;6.256;2023-03-21T04:34:19;96663.91;;;4.28;100.00
41334;BME280;27078;46.428;6.256;2023-03-21T04:36:48;96668.72;;;4.20;100.00
41334;BME280;27078;46.428;6.256;2023-03-21T04:39:15;96665.69;;;3.98;100.00
41334;BME280;27078;46.428;6.256;2023-03-21T04:41:43;96674.09;;;3.88;100.00
41334;BME280;27078;46.428;6.256;2023-03-21T04:44:10;96674.28;;;3.85;100.00
41334;BME280;27078;46.428;6.256;2023-03-21T04:46:37;96674.84;;;3.91;100.00
41334;BME280;27078;46.428;6.256;2023-03-21T04:49:03;96677.25;;;3.79;100.00
41334;BME280;27078;46.428;6.256;2023-03-21T04:51:29;96672.53;;;3.70;100.00
41334;BME280;27078;46.428;6.256;2023-03-21T04:53:55;96677.59;;;3.73;100.00
41334;BME280;27078;46.428;6.256;2023-03-21T04:56:28;96675.75;;;3.75;100.00
41334;BME280;27078;46.428;6.256;2023-03-21T04:59:04;96680.56;;;3.67;100.00
41334;BME280;27078;46.428;6.256;2023-03-21T05:01:30;96677.41;;;3.76;100.00
41334;BME280;27078;46.428;6.256;2023-03-21T05:03:57;96682.44;;;3.65;100.00
41334;BME280;27078;46.428;6.256;2023-03-21T05:06:23;96682.69;;;3.60;100.00
41334;BME280;27078;46.428;6.256;2023-03-21T05:08:48;96678.56;;;3.56;100.00
41334;BME280;27078;46.428;6.256;2023-03-21T05:11:14;96677.91;;;3.53;100.00
41334;BME280;27078;46.428;6.256;2023-03-21T05:13:40;96669.72;;;3.59;100.00
41334;BME280;27078;46.428;6.256;2023-03-21T05:16:06;96675.28;;;3.53;100.00
41334;BME280;27078;46.428;6.256;2023-03-21T05:18:31;96666.28;;;3.42;100.00
41334;BME280;27078;46.428;6.256;2023-03-21T05:20:58;96665.25;;;3.45;100.00
41334;BME280;27078;46.428;6.256;2023-03-21T05:23:24;96666.28;;;3.42;100.00
41334;BME280;27078;46.428;6.256;2023-03-21T05:25:50;96665.53;;;3.40;100.00
41334;BME280;27078;46.428;6.256;2023-03-21T05:28:15;96667.31;;;3.40;100.00
41334;BME280;27078;46.428;6.256;2023-03-21T05:30:44;96667.03;;;3.44;100.00
41334;BME280;27078;46.428;6.256;2023-03-21T05:33:11;96661.88;;;3.59;100.00
41334;BME280;27078;46.428;6.256;2023-03-21T05:35:36;96662.56;;;3.46;100.00
41334;BME280;27078;46.428;6.256;2023-03-21T05:38:02;96670.75;;;3.40;100.00
41334;BME280;27078;46.428;6.256;2023-03-21T05:40:27;96665.94;;;3.49;100.00
41334;BME280;27078;46.428;6.256;2023-03-21T05:42:53;96666.19;;;3.60;100.00
41334;BME280;27078;46.428;6.256;2023-03-21T05:45:18;96659.25;;;3.59;100.00
41334;BME280;27078;46.428;6.256;2023-03-21T05:47:44;96661.38;;;3.82;100.00
41334;BME280;27078;46.428;6.256;2023-03-21T05:50:10;96659.16;;;3.91;100.00
41334;BME280;27078;46.428;6.256;2023-03-21T05:52:36;96664.31;;;3.92;100.00
41334;BME280;27078;46.428;6.256;2023-03-21T05:55:01;96666.75;;;4.10;100.00
41334;BME280;27078;46.428;6.256;2023-03-21T05:57:27;96666.88;;;4.22;100.00
41334;BME280;27078;46.428;6.256;2023-03-21T05:59:53;96664.09;;;4.25;100.00
41334;BME280;27078;46.428;6.256;2023-03-21T06:02:18;96671.72;;;4.14;100.00
41334;BME280;27078;46.428;6.256;2023-03-21T06:04:44;96676.91;;;4.00;100.00
41334;BME280;27078;46.428;6.256;2023-03-21T06:07:10;96684.47;;;3.90;100.00
41334;BME280;27078;46.428;6.256;2023-03-21T06:09:35;96681.44;;;3.82;100.00
41334;BME280;27078;46.428;6.256;2023-03-21T06:12:00;96689.91;;;3.71;100.00
41334;BME280;27078;46.428;6.256;2023-03-21T06:14:26;96695.66;;;3.62;100.00
41334;BME280;27078;46.428;6.256;2023-03-21T06:16:52;96689.59;;;3.61;100.00
41334;BME280;27078;46.428;6.256;2023-03-21T06:19:19;96695.28;;;3.68;100.00
41334;BME280;27078;46.428;6.256;2023-03-21T06:21:45;96690.31;;;3.79;100.00
41334;BME280;27078;46.428;6.256;2023-03-21T06:24:10;96690.72;;;3.87;100.00
41334;BME280;27078;46.428;6.256;2023-03-21T06:26:35;96693.19;;;4.05;100.00
41334;BME280;27078;46.428;6.256;2023-03-21T06:29:01;96692.63;;;4.14;100.00
41334;BME280;27078;46.428;6.256;2023-03-21T06:31:26;96692.09;;;4.23;100.00
41334;BME280;27078;46.428;6.256;2023-03-21T06:33:52;96691.25;;;4.23;100.00
41334;BME280;27078;46.428;6.256;2023-03-21T06:36:18;96693.78;;;4.24;100.00
41334;BME280;27078;46.428;6.256;2023-03-21T06:38:44;96692.47;;;4.32;100.00
41334;BME280;27078;46.428;6.256;2023-03-21T06:41:11;96697.31;;;4.38;100.00
41334;BME280;27078;46.428;6.256;2023-03-21T06:43:37;96696.88;;;4.45;100.00
41334;BME280;27078;46.428;6.256;2023-03-21T06:46:03;96696.31;;;4.55;100.00
41334;BME280;27078;46.428;6.256;2023-03-21T06:48:29;96708.19;;;4.60;100.00
41334;BME280;27078;46.428;6.256;2023-03-21T06:50:55;96700.81;;;4.67;100.00
41334;BME280;27078;46.428;6.256;2023-03-21T06:53:22;96703.13;;;4.72;100.00
41334;BME280;27078;46.428;6.256;2023-03-21T06:55:55;96713.22;;;4.78;100.00
41334;BME280;27078;46.428;6.256;2023-03-21T06:58:21;96709.09;;;4.88;100.00
41334;BME280;27078;46.428;6.256;2023-03-21T07:00:47;96710.41;;;4.95;100.00
41334;BME280;27078;46.428;6.256;2023-03-21T07:03:13;96724.53;;;5.07;100.00
41334;BME280;27078;46.428;6.256;2023-03-21T07:05:39;96713.47;;;5.16;100.00
41334;BME280;27078;46.428;6.256;2023-03-21T07:08:06;96708.59;;;5.24;100.00
41334;BME280;27078;46.428;6.256;2023-03-21T07:10:39;96716.94;;;5.44;100.00
41334;BME280;27078;46.428;6.256;2023-03-21T07:13:05;96706.34;;;5.60;100.00
41334;BME280;27078;46.428;6.256;2023-03-21T07:15:30;96700.31;;;5.72;100.00
41334;BME280;27078;46.428;6.256;2023-03-21T07:17:57;96703.06;;;5.83;100.00
41334;BME280;27078;46.428;6.256;2023-03-21T07:20:22;96711.06;;;5.95;100.00
41334;BME280;27078;46.428;6.256;2023-03-21T07:22:48;96699.19;;;6.16;100.00
41334;BME280;27078;46.428;6.256;2023-03-21T07:25:13;96707.47;;;6.36;100.00
41334;BME280;27078;46.428;6.256;2023-03-21T07:27:39;96699.94;;;6.57;100.00
41334;BME280;27078;46.428;6.256;2023-03-21T07:30:05;96706.97;;;6.82;100.00
41334;BME280;27078;46.428;6.256;2023-03-21T07:32:32;96703.00;;;7.13;100.00
41334;BME280;27078;46.428;6.256;2023-03-21T07:34:58;96706.41;;;7.39;100.00
41334;BME280;27078;46.428;6.256;2023-03-21T07:37:25;96702.84;;;7.64;100.00
41334;BME280;27078;46.428;6.256;2023-03-21T07:39:50;96700.50;;;8.08;100.00
41334;BME280;27078;46.428;6.256;2023-03-21T07:42:16;96699.13;;;8.26;100.00
41334;BME280;27078;46.428;6.256;2023-03-21T07:44:42;96708.94;;;8.35;100.00
41334;BME280;27078;46.428;6.256;2023-03-21T07:47:07;96698.16;;;8.63;100.00
41334;BME280;27078;46.428;6.256;2023-03-21T07:49:32;96699.84;;;8.86;100.00
41334;BME280;27078;46.428;6.256;2023-03-21T07:51:58;96703.66;;;9.05;100.00
41334;BME280;27078;46.428;6.256;2023-03-21T07:54:24;96701.00;;;9.16;100.00
41334;BME280;27078;46.428;6.256;2023-03-21T07:56:49;96705.09;;;9.20;100.00
41334;BME280;27078;46.428;6.256;2023-03-21T07:59:15;96702.19;;;9.34;100.00
41334;BME280;27078;46.428;6.256;2023-03-21T08:01:40;96706.50;;;9.47;100.00
41334;BME280;27078;46.428;6.256;2023-03-21T08:04:05;96713.66;;;9.56;100.00
41334;BME280;27078;46.428;6.256;2023-03-21T08:06:32;96714.97;;;9.62;100.00
41334;BME280;27078;46.428;6.256;2023-03-21T08:08:58;96707.25;;;9.81;100.00
41334;BME280;27078;46.428;6.256;2023-03-21T08:11:23;96698.31;;;9.93;100.00
41334;BME280;27078;46.428;6.256;2023-03-21T08:13:49;96703.09;;;9.99;100.00
41334;BME280;27078;46.428;6.256;2023-03-21T08:16:16;96700.88;;;10.16;100.00
41334;BME280;27078;46.428;6.256;2023-03-21T08:18:41;96697.09;;;10.30;100.00
41334;BME280;27078;46.428;6.256;2023-03-21T08:21:07;96700.19;;;10.35;100.00
41334;BME280;27078;46.428;6.256;2023-03-21T08:23:32;96705.81;;;10.42;100.00
41334;BME280;27078;46.428;6.256;2023-03-21T08:25:57;96690.72;;;10.53;100.00
41334;BME280;27078;46.428;6.256;2023-03-21T08:28:23;96700.44;;;10.74;100.00
41334;BME280;27078;46.428;6.256;2023-03-21T08:30:49;96695.28;;;10.72;100.00
41334;BME280;27078;46.428;6.256;2023-03-21T08:33:15;96699.19;;;10.78;100.00
41334;BME280;27078;46.428;6.256;2023-03-21T08:35:41;96693.41;;;10.84;100.00
41334;BME280;27078;46.428;6.256;2023-03-21T08:38:07;96693.41;;;10.94;100.00
41334;BME280;27078;46.428;6.256;2023-03-21T08:40:34;96686.19;;;10.96;100.00
41334;BME280;27078;46.428;6.256;2023-03-21T08:43:00;96688.88;;;11.06;100.00
41334;BME280;27078;46.428;6.256;2023-03-21T08:45:25;96683.66;;;11.15;100.00
41334;BME280;27078;46.428;6.256;2023-03-21T08:47:52;96687.53;;;11.11;100.00
41334;BME280;27078;46.428;6.256;2023-03-21T08:50:20;96684.31;;;11.17;100.00
41334;BME280;27078;46.428;6.256;2023-03-21T08:52:45;96679.44;;;11.13;100.00
41334;BME280;27078;46.428;6.256;2023-03-21T08:55:11;96684.72;;;11.13;100.00
41334;BME280;27078;46.428;6.256;2023-03-21T08:57:37;96677.00;;;11.40;100.00
41334;BME280;27078;46.428;6.256;2023-03-21T09:00:04;96677.34;;;11.47;100.00
41334;BME280;27078;46.428;6.256;2023-03-21T09:02:37;96671.34;;;11.55;100.00
41334;BME280;27078;46.428;6.256;2023-03-21T09:05:02;96681.94;;;11.65;100.00
41334;BME280;27078;46.428;6.256;2023-03-21T09:07:30;96679.28;;;11.74;100.00
41334;BME280;27078;46.428;6.256;2023-03-21T09:09:58;96678.19;;;11.67;100.00
41334;BME280;27078;46.428;6.256;2023-03-21T09:12:24;96679.47;;;11.73;100.00
41334;BME280;27078;46.428;6.256;2023-03-21T09:14:50;96672.50;;;11.81;100.00
41334;BME280;27078;46.428;6.256;2023-03-21T09:17:17;96683.22;;;11.80;100.00
41334;BME280;27078;46.428;6.256;2023-03-21T09:19:43;96683.78;;;11.64;100.00
41334;BME280;27078;46.428;6.256;2023-03-21T09:22:08;96679.03;;;11.87;100.00
41334;BME280;27078;46.428;6.256;2023-03-21T09:24:39;96671.25;;;11.95;100.00
41334;BME280;27078;46.428;6.256;2023-03-21T09:27:06;96671.16;;;12.07;100.00
41334;BME280;27078;46.428;6.256;2023-03-21T09:29:32;96682.00;;;11.94;100.00
41334;BME280;27078;46.428;6.256;2023-03-21T09:31:58;96673.34;;;12.01;100.00
41334;BME280;27078;46.428;6.256;2023-03-21T09:34:23;96683.13;;;12.11;100.00
41334;BME280;27078;46.428;6.256;2023-03-21T09:36:50;96672.50;;;12.20;100.00
41334;BME280;27078;46.428;6.256;2023-03-21T09:39:16;96684.63;;;12.33;100.00
41334;BME280;27078;46.428;6.256;2023-03-21T09:42:09;96680.44;;;12.40;100.00
41334;BME280;27078;46.428;6.256;2023-03-21T09:44:57;96674.00;;;12.52;100.00
41334;BME280;27078;46.428;6.256;2023-03-21T09:47:28;96666.88;;;12.53;100.00
41334;BME280;27078;46.428;6.256;2023-03-21T09:50:03;96674.09;;;12.70;100.00
41334;BME280;27078;46.428;6.256;2023-03-21T09:52:56;96670.88;;;12.76;100.00
41334;BME280;27078;46.428;6.256;2023-03-21T09:55:25;96660.28;;;12.76;100.00
41334;BME280;27078;46.428;6.256;2023-03-21T10:00:34;96660.44;;;13.02;100.00
41334;BME280;27078;46.428;6.256;2023-03-21T10:03:03;96657.47;;;13.15;100.00
41334;BME280;27078;46.428;6.256;2023-03-21T10:05:32;96651.16;;;13.16;100.00
41334;BME280;27078;46.428;6.256;2023-03-21T10:10:48;96649.88;;;13.20;100.00
41334;BME280;27078;46.428;6.256;2023-03-21T10:13:19;96655.31;;;13.29;100.00
41334;BME280;27078;46.428;6.256;2023-03-21T10:15:47;96640.22;;;13.29;100.00
41334;BME280;27078;46.428;6.256;2023-03-21T10:18:20;96639.59;;;13.45;100.00
41334;BME280;27078;46.428;6.256;2023-03-21T10:20:48;96634.69;;;13.68;100.00
41334;BME280;27078;46.428;6.256;2023-03-21T10:23:16;96634.91;;;13.75;100.00
41334;BME280;27078;46.428;6.256;2023-03-21T10:25:47;96627.50;;;13.78;100.00
41334;BME280;27078;46.428;6.256;2023-03-21T10:28:17;96634.31;;;13.81;100.00
41334;BME280;27078;46.428;6.256;2023-03-21T10:30:52;96622.38;;;14.03;100.00
41334;BME280;27078;46.428;6.256;2023-03-21T10:33:42;96621.25;;;14.05;100.00
41334;BME280;27078;46.428;6.256;2023-03-21T10:36:09;96618.91;;;14.02;100.00
41334;BME280;27078;46.428;6.256;2023-03-21T10:38:43;96623.66;;;14.17;100.00
41334;BME280;27078;46.428;6.256;2023-03-21T10:41:10;96611.50;;;14.32;100.00
41334;BME280;27078;46.428;6.256;2023-03-21T10:43:38;96612.50;;;14.31;100.00
41334;BME280;27078;46.428;6.256;2023-03-21T10:46:18;96618.28;;;14.53;100.00
41334;BME280;27078;46.428;6.256;2023-03-21T10:48:52;96609.03;;;14.57;100.00
41334;BME280;27078;46.428;6.256;2023-03-21T10:51:20;96607.75;;;14.43;100.00
41334;BME280;27078;46.428;6.256;2023-03-21T10:53:58;96612.47;;;14.75;100.00
41334;BME280;27078;46.428;6.256;2023-03-21T10:56:29;96617.09;;;14.73;100.00
41334;BME280;27078;46.428;6.256;2023-03-21T10:58:58;96618.13;;;14.80;100.00
41334;BME280;27078;46.428;6.256;2023-03-21T11:01:40;96608.22;;;14.91;100.00
41334;BME280;27078;46.428;6.256;2023-03-21T11:04:27;96610.53;;;14.94;100.00
41334;BME280;27078;46.428;6.256;2023-03-21T11:06:55;96602.56;;;14.94;100.00
41334;BME280;27078;46.428;6.256;2023-03-21T11:09:23;96589.47;;;15.09;100.00
41334;BME280;27078;46.428;6.256;2023-03-21T11:12:09;96593.56;;;15.29;100.00
41334;BME280;27078;46.428;6.256;2023-03-21T11:14:41;96593.41;;;15.31;100.00
41334;BME280;27078;46.428;6.256;2023-03-21T11:19:50;96593.25;;;15.40;100.00
41334;BME280;27078;46.428;6.256;2023-03-21T11:22:18;96589.44;;;15.51;100.00
41334;BME280;27078;46.428;6.256;2023-03-21T11:24:49;96588.44;;;15.52;100.00
41334;BME280;27078;46.428;6.256;2023-03-21T11:27:16;96585.44;;;15.47;100.00
41334;BME280;27078;46.428;6.256;2023-03-21T11:29:47;96584.75;;;15.45;100.00
41334;BME280;27078;46.428;6.256;2023-03-21T11:32:19;96577.63;;;15.62;100.00
41334;BME280;27078;46.428;6.256;2023-03-21T11:34:48;96565.66;;;15.41;100.00
41334;BME280;27078;46.428;6.256;2023-03-21T11:37:42;96569.94;;;15.34;100.00
41334;BME280;27078;46.428;6.256;2023-03-21T11:42:49;96555.31;;;15.46;100.00
41334;BME280;27078;46.428;6.256;2023-03-21T11:45:29;96557.50;;;15.59;100.00
41334;BME280;27078;46.428;6.256;2023-03-21T11:47:58;96559.84;;;15.54;100.00
41334;BME280;27078;46.428;6.256;2023-03-21T11:50:42;96546.09;;;15.75;100.00
41334;BME280;27078;46.428;6.256;2023-03-21T11:53:22;96543.19;;;15.44;100.00
41334;BME280;27078;46.428;6.256;2023-03-21T11:59:11;96537.59;;;15.96;100.00
41334;BME280;27078;46.428;6.256;2023-03-21T12:07:26;96527.91;;;16.20;100.00
41334;BME280;27078;46.428;6.256;2023-03-21T12:18:58;96505.09;;;16.65;100.00
41334;BME280;27078;46.428;6.256;2023-03-21T12:21:52;96497.06;;;16.73;100.00
41334;BME280;27078;46.428;6.256;2023-03-21T12:24:34;96502.56;;;16.72;100.00
41334;BME280;27078;46.428;6.256;2023-03-21T12:43:27;96472.00;;;17.45;100.00
41334;BME280;27078;46.428;6.256;2023-03-21T12:45:59;96463.13;;;17.53;100.00
41334;BME280;27078;46.428;6.256;2023-03-21T12:48:45;96467.09;;;17.34;97.62
41334;BME280;27078;46.428;6.256;2023-03-21T12:51:16;96460.97;;;17.25;97.98
41334;BME280;27078;46.428;6.256;2023-03-21T12:54:06;96464.59;;;17.09;99.94
41334;BME280;27078;46.428;6.256;2023-03-21T12:56:38;96461.97;;;17.01;97.63
41334;BME280;27078;46.428;6.256;2023-03-21T13:01:41;96464.66;;;16.93;100.00
41334;BME280;27078;46.428;6.256;2023-03-21T13:04:20;96462.13;;;16.99;100.00
41334;BME280;27078;46.428;6.256;2023-03-21T13:06:53;96453.91;;;17.09;100.00
41334;BME280;27078;46.428;6.256;2023-03-21T13:09:36;96454.97;;;17.00;100.00
41334;BME280;27078;46.428;6.256;2023-03-21T13:12:40;96449.00;;;16.98;100.00
41334;BME280;27078;46.428;6.256;2023-03-21T13:15:22;96450.81;;;17.20;100.00
41334;BME280;27078;46.428;6.256;2023-03-21T13:17:58;96443.53;;;17.14;100.00
41334;BME280;27078;46.428;6.256;2023-03-21T13:20:40;96445.84;;;17.17;100.00
41334;BME280;27078;46.428;6.256;2023-03-21T13:23:08;96438.50;;;16.96;100.00
41334;BME280;27078;46.428;6.256;2023-03-21T13:25:40;96436.88;;;16.87;100.00
41334;BME280;27078;46.428;6.256;2023-03-21T13:28:20;96436.41;;;16.83;100.00
41334;BME280;27078;46.428;6.256;2023-03-21T13:30:46;96430.47;;;16.96;100.00
41334;BME280;27078;46.428;6.256;2023-03-21T13:33:15;96427.69;;;16.89;100.00
41334;BME280;27078;46.428;6.256;2023-03-21T13:35:44;96429.47;;;16.97;100.00
41334;BME280;27078;46.428;6.256;2023-03-21T13:38:24;96419.16;;;16.94;100.00
41334;BME280;27078;46.428;6.256;2023-03-21T13:40:56;96414.00;;;16.93;100.00
41334;BME280;27078;46.428;6.256;2023-03-21T13:46:14;96416.44;;;16.71;100.00
41334;BME280;27078;46.428;6.256;2023-03-21T13:54:03;96400.06;;;17.05;100.00
41334;BME280;27078;46.428;6.256;2023-03-21T13:56:47;96403.50;;;16.91;100.00
41334;BME280;27078;46.428;6.256;2023-03-21T14:04:36;96395.31;;;17.16;100.00
41334;BME280;27078;46.428;6.256;2023-03-21T14:07:16;96392.59;;;17.24;100.00
41334;BME280;27078;46.428;6.256;2023-03-21T14:09:45;96402.38;;;17.32;100.00
41334;BME280;27078;46.428;6.256;2023-03-21T14:12:36;96390.91;;;17.46;100.00
41334;BME280;27078;46.428;6.256;2023-03-21T14:17:36;96394.28;;;17.78;100.00
41334;BME280;27078;46.428;6.256;2023-03-21T14:20:20;96385.25;;;17.79;96.88
41334;BME280;27078;46.428;6.256;2023-03-21T14:22:47;96385.13;;;17.95;100.00
41334;BME280;27078;46.428;6.256;2023-03-21T14:25:15;96387.78;;;17.95;99.45
41334;BME280;27078;46.428;6.256;2023-03-21T14:27:43;96385.84;;;17.89;96.50
41334;BME280;27078;46.428;6.256;2023-03-21T14:30:36;96386.22;;;18.16;100.00
41334;BME280;27078;46.428;6.256;2023-03-21T14:33:10;96386.00;;;18.32;100.00
41334;BME280;27078;46.428;6.256;2023-03-21T14:35:39;96383.97;;;18.49;100.00
41334;BME280;27078;46.428;6.256;2023-03-21T14:38:22;96375.66;;;18.59;99.45
41334;BME280;27078;46.428;6.256;2023-03-21T14:40:50;96372.78;;;18.60;94.54
41334;BME280;27078;46.428;6.256;2023-03-21T14:43:18;96369.34;;;18.66;90.03